createdAt,value
2023-02-06T00:01:09.443Z,12.33
2023-02-06T00:03:43.632Z,13.70
2023-02-06T00:06:17.363Z,12.20
2023-02-06T00:08:49.443Z,13.47
2023-02-06T00:11:22.873Z,14.10
2023-02-06T00:13:55.067Z,13.03
2023-02-06T00:16:31.622Z,11.37
2023-02-06T00:19:03.123Z,15.10
2023-02-06T00:21:35.262Z,15.20
2023-02-06T00:24:16.185Z,16.03
2023-02-06T00:26:48.256Z,13.67
2023-02-06T00:29:20.493Z,11.57
2023-02-06T00:31:52.987Z,13.73
2023-02-06T00:34:26.305Z,11.73
2023-02-06T00:36:56.811Z,13.97
2023-02-06T00:39:28.881Z,13.63
2023-02-06T00:41:59.412Z,13.90
2023-02-06T00:44:34.207Z,15.80
2023-02-06T00:47:04.951Z,12.90
2023-02-06T00:49:35.569Z,12.33
2023-02-06T00:52:09.666Z,13.43
2023-02-06T00:54:43.829Z,12.97
2023-02-06T00:57:15.948Z,13.67
2023-02-06T00:59:46.527Z,13.03
2023-02-06T01:02:16.901Z,12.33
2023-02-06T01:04:48.908Z,15.10
2023-02-06T01:07:21.271Z,14.93
2023-02-06T01:09:52.185Z,13.67
2023-02-06T01:12:25.178Z,14.63
2023-02-06T01:14:57.970Z,14.50
2023-02-06T01:17:28.930Z,12.43
2023-02-06T01:20:00.227Z,13.87
2023-02-06T01:22:30.853Z,20.07
2023-02-06T01:25:03.725Z,16.83
2023-02-06T01:27:40.212Z,16.30
2023-02-06T01:30:11.827Z,14.97
2023-02-06T01:32:44.013Z,15.43
2023-02-06T01:35:14.571Z,13.10
2023-02-06T01:37:46.748Z,14.40
2023-02-06T01:40:17.932Z,19.23
2023-02-06T01:42:48.320Z,15.43
2023-02-06T01:45:37.382Z,16.07
2023-02-06T01:48:11.061Z,13.57
2023-02-06T01:50:45.775Z,13.57
2023-02-06T01:53:20.732Z,14.77
2023-02-06T01:55:54.175Z,14.73
2023-02-06T01:58:31.736Z,11.97
2023-02-06T02:01:03.503Z,14.83
2023-02-06T02:03:37.266Z,15.00
2023-02-06T02:06:12.104Z,15.40
2023-02-06T02:08:45.837Z,13.83
2023-02-06T02:11:22.293Z,14.70
2023-02-06T02:13:54.405Z,12.27
2023-02-06T02:16:27.954Z,12.23
2023-02-06T02:19:34.564Z,13.77
2023-02-06T02:22:26.297Z,16.83
2023-02-06T02:25:02.521Z,14.97
2023-02-06T02:27:58.777Z,12.20
2023-02-06T02:31:07.909Z,13.23
2023-02-06T02:34:04.350Z,15.53
2023-02-06T02:36:47.872Z,13.47
2023-02-06T02:39:27.449Z,13.17
2023-02-06T02:42:07.054Z,12.50
2023-02-06T02:45:09.688Z,14.70
2023-02-06T02:47:50.098Z,13.77
2023-02-06T02:50:22.238Z,11.33
2023-02-06T02:52:53.848Z,13.60
2023-02-06T02:55:27.974Z,12.43
2023-02-06T02:58:03.091Z,11.50
2023-02-06T03:00:37.215Z,12.53
2023-02-06T03:03:12.521Z,13.30
2023-02-06T03:05:56.276Z,10.30
2023-02-06T03:08:32.433Z,12.13
2023-02-06T03:11:14.984Z,12.90
2023-02-06T03:14:00.553Z,10.30
2023-02-06T03:16:43.186Z,8.63
2023-02-06T03:19:20.009Z,9.33
2023-02-06T03:21:52.677Z,10.23
2023-02-06T03:24:29.024Z,9.87
2023-02-06T03:27:02.455Z,9.63
2023-02-06T03:29:36.870Z,11.13
2023-02-06T03:32:18.707Z,10.17
2023-02-06T03:35:00.479Z,8.47
2023-02-06T03:37:34.330Z,9.07
2023-02-06T03:40:08.004Z,10.00
2023-02-06T03:42:41.489Z,8.73
2023-02-06T03:45:18.042Z,9.17
2023-02-06T03:47:52.285Z,10.47
2023-02-06T03:50:26.279Z,8.83
2023-02-06T03:52:59.299Z,8.23
2023-02-06T03:55:29.940Z,7.13
2023-02-06T03:58:09.849Z,9.70
2023-02-06T04:00:44.671Z,8.03
2023-02-06T04:03:16.279Z,7.50
2023-02-06T04:05:46.939Z,8.30
2023-02-06T04:08:18.519Z,9.57
2023-02-06T04:10:50.004Z,8.70
2023-02-06T04:13:20.538Z,9.27
2023-02-06T04:15:52.582Z,8.93
2023-02-06T04:18:29.454Z,8.60
2023-02-06T04:21:05.330Z,7.43
2023-02-06T04:23:36.962Z,9.57
2023-02-06T04:26:07.450Z,9.17
2023-02-06T04:28:38.241Z,9.83
2023-02-06T04:31:08.745Z,9.57
2023-02-06T04:33:39.432Z,10.57
2023-02-06T04:36:10.205Z,8.87
2023-02-06T04:38:40.639Z,9.10
2023-02-06T04:41:11.479Z,6.80
2023-02-06T04:43:42.077Z,7.30
2023-02-06T04:46:12.561Z,8.13
2023-02-06T04:48:43.167Z,8.27
2023-02-06T04:51:13.536Z,7.83
2023-02-06T04:53:44.428Z,7.53
2023-02-06T04:56:15.203Z,7.87
2023-02-06T04:58:45.898Z,9.60
2023-02-06T05:01:17.203Z,9.07
2023-02-06T05:03:48.524Z,10.73
2023-02-06T05:06:19.092Z,11.93
2023-02-06T05:08:49.764Z,8.70
2023-02-06T05:11:20.124Z,9.00
2023-02-06T05:13:50.630Z,11.70
2023-02-06T05:16:21.274Z,10.77
2023-02-06T05:18:54.574Z,9.27
2023-02-06T05:21:26.058Z,10.23
2023-02-06T05:23:56.484Z,10.97
2023-02-06T05:26:27.116Z,12.83
2023-02-06T05:28:59.864Z,12.83
2023-02-06T05:31:30.725Z,12.37
2023-02-06T05:34:01.550Z,11.67
2023-02-06T05:36:31.941Z,9.93
2023-02-06T05:39:04.786Z,11.97
2023-02-06T05:41:35.269Z,10.37
2023-02-06T05:44:06.145Z,13.63
2023-02-06T05:46:36.746Z,11.23
2023-02-06T05:49:08.779Z,13.90
2023-02-06T05:51:39.368Z,12.30
2023-02-06T05:54:10.013Z,11.57
2023-02-06T05:56:40.581Z,10.97
2023-02-06T05:59:10.938Z,12.00
2023-02-06T06:01:41.940Z,11.30
2023-02-06T06:04:12.613Z,10.93
2023-02-06T06:06:44.272Z,13.80
2023-02-06T06:09:14.966Z,12.47
2023-02-06T06:11:48.708Z,13.73
2023-02-06T06:14:19.815Z,13.80
2023-02-06T06:16:51.416Z,15.27
2023-02-06T06:19:22.207Z,13.90
2023-02-06T06:21:55.592Z,14.33
2023-02-06T06:24:26.959Z,14.47
2023-02-06T06:26:59.062Z,16.43
2023-02-06T06:29:30.196Z,13.83
2023-02-06T06:32:00.634Z,14.60
2023-02-06T06:34:31.093Z,16.37
2023-02-06T06:37:03.437Z,12.77
2023-02-06T06:39:33.867Z,14.63
2023-02-06T06:42:04.533Z,15.53
2023-02-06T06:44:35.274Z,14.87
2023-02-06T06:47:05.836Z,16.33
2023-02-06T06:49:36.477Z,17.00
2023-02-06T06:52:19.511Z,15.83
2023-02-06T06:54:41.676Z,18.30
2023-02-06T06:57:13.299Z,17.13
2023-02-06T06:59:43.904Z,15.97
2023-02-06T07:02:14.508Z,17.40
2023-02-06T07:04:45.088Z,16.50
2023-02-06T07:07:15.949Z,18.07
2023-02-06T07:09:46.462Z,18.43
2023-02-06T07:12:17.580Z,17.70
2023-02-06T07:14:48.174Z,18.50
2023-02-06T07:17:19.012Z,20.53
2023-02-06T07:19:51.081Z,19.90
2023-02-06T07:22:21.722Z,24.00
2023-02-06T07:24:54.388Z,20.53
2023-02-06T07:27:24.537Z,21.30
2023-02-06T07:29:54.950Z,20.80
2023-02-06T07:32:27.573Z,22.90
2023-02-06T07:34:59.869Z,20.97
2023-02-06T07:37:30.302Z,23.37
2023-02-06T07:40:00.836Z,23.23
2023-02-06T07:42:32.815Z,26.70
2023-02-06T07:45:03.629Z,21.00
2023-02-06T07:47:34.837Z,20.70
2023-02-06T07:50:05.789Z,18.13
2023-02-06T07:52:36.379Z,21.03
2023-02-06T07:55:07.212Z,21.97
2023-02-06T07:57:38.379Z,18.67
2023-02-06T08:00:11.325Z,19.53
2023-02-06T08:02:42.149Z,19.07
2023-02-06T08:05:12.939Z,18.10
2023-02-06T08:07:44.447Z,19.73
2023-02-06T08:10:14.976Z,19.70
2023-02-06T08:12:52.701Z,18.27
2023-02-06T08:15:24.999Z,19.73
2023-02-06T08:17:57.034Z,19.10
2023-02-06T08:20:27.643Z,18.20
2023-02-06T08:23:00.173Z,16.10
2023-02-06T08:25:30.661Z,17.63
2023-02-06T08:28:01.132Z,17.93
2023-02-06T08:30:34.944Z,17.70
2023-02-06T08:33:05.519Z,17.60
2023-02-06T08:35:36.368Z,18.90
2023-02-06T08:38:08.477Z,19.57
2023-02-06T08:40:38.969Z,19.63
2023-02-06T08:43:11.387Z,24.87
2023-02-06T08:45:41.845Z,19.87
2023-02-06T08:48:12.314Z,17.73
2023-02-06T08:50:44.517Z,19.73
2023-02-06T08:53:15.017Z,23.07
2023-02-06T08:55:45.484Z,22.53
2023-02-06T08:58:18.901Z,21.57
2023-02-06T09:00:49.337Z,20.90
2023-02-06T09:03:21.654Z,25.27
2023-02-06T09:05:57.582Z,21.43
2023-02-06T09:08:30.940Z,24.50
2023-02-06T09:11:16.393Z,26.37
2023-02-06T09:13:50.312Z,26.07
2023-02-06T09:16:21.618Z,25.10
2023-02-06T09:18:54.179Z,24.10
2023-02-06T09:21:26.980Z,24.43
2023-02-06T09:24:04.083Z,29.40
2023-02-06T09:26:58.183Z,27.63
2023-02-06T09:29:14.925Z,28.70
2023-02-06T09:31:47.325Z,29.50
2023-02-06T09:34:19.365Z,29.73
2023-02-06T09:36:52.790Z,29.50
2023-02-06T09:39:25.147Z,31.07
2023-02-06T09:42:10.560Z,31.27
2023-02-06T09:44:55.771Z,30.73
2023-02-06T09:47:30.388Z,26.60
2023-02-06T09:50:09.749Z,28.53
2023-02-06T09:52:58.036Z,31.67
2023-02-06T09:55:45.916Z,25.43
2023-02-06T09:58:39.921Z,36.07
2023-02-06T10:01:19.548Z,28.60
2023-02-06T10:04:06.780Z,29.70
2023-02-06T10:06:49.309Z,26.20
2023-02-06T10:09:25.086Z,29.03
2023-02-06T10:12:04.812Z,30.17
2023-02-06T10:14:44.631Z,27.40
2023-02-06T10:17:18.140Z,30.20
2023-02-06T10:20:00.943Z,29.00
2023-02-06T10:22:40.278Z,28.73
2023-02-06T10:25:19.521Z,28.00
2023-02-06T10:27:57.788Z,29.47
2023-02-06T10:30:54.270Z,23.53
2023-02-06T10:33:30.492Z,24.97
2023-02-06T10:36:20.106Z,23.03
2023-02-06T10:38:56.547Z,27.10
2023-02-06T10:41:32.823Z,32.37
2023-02-06T10:44:21.690Z,28.87
2023-02-06T10:46:55.823Z,24.67
2023-02-06T10:49:41.454Z,26.70
2023-02-06T10:52:27.541Z,25.10
2023-02-06T10:55:01.492Z,26.27
2023-02-06T10:57:32.716Z,23.67
2023-02-06T11:00:04.685Z,22.40
2023-02-06T11:03:06.144Z,25.07
2023-02-06T11:05:30.282Z,24.50
2023-02-06T11:08:16.097Z,22.43
2023-02-06T11:10:48.599Z,26.27
2023-02-06T11:13:34.310Z,19.23
2023-02-06T11:16:08.566Z,22.30
2023-02-06T11:18:42.388Z,22.03
2023-02-06T11:21:15.520Z,20.17
2023-02-06T11:23:47.377Z,22.97
2023-02-06T11:26:21.067Z,21.23
2023-02-06T11:28:57.150Z,25.33
2023-02-06T11:31:45.730Z,25.90
2023-02-06T11:34:22.333Z,24.53
2023-02-06T11:36:57.533Z,22.97
2023-02-06T11:39:39.599Z,25.53
2023-02-06T11:42:25.549Z,23.90
2023-02-06T11:44:56.244Z,25.00
2023-02-06T11:47:33.094Z,28.27
2023-02-06T11:50:18.635Z,30.90
2023-02-06T11:52:50.117Z,23.23
2023-02-06T11:55:27.485Z,20.87
2023-02-06T11:58:16.227Z,24.33
2023-02-06T12:00:56.030Z,26.50
2023-02-06T12:03:32.576Z,22.43
2023-02-06T12:06:25.525Z,26.13
2023-02-06T12:08:59.364Z,25.33
2023-02-06T12:11:36.149Z,26.90
2023-02-06T12:14:09.775Z,23.40
2023-02-06T12:16:46.357Z,24.73
2023-02-06T12:19:23.464Z,26.80
2023-02-06T12:22:00.367Z,24.30
2023-02-06T12:24:43.147Z,29.33
2023-02-06T12:27:25.901Z,28.40
2023-02-06T12:29:59.547Z,27.17
2023-02-06T12:32:42.281Z,25.97
2023-02-06T12:35:22.958Z,28.57
2023-02-06T12:37:56.469Z,23.57
2023-02-06T12:40:45.055Z,27.40
2023-02-06T12:43:18.588Z,31.53
2023-02-06T12:46:04.758Z,27.93
2023-02-06T12:48:56.842Z,29.70
2023-02-06T12:51:36.367Z,27.43
2023-02-06T12:54:09.898Z,31.47
2023-02-06T12:56:46.607Z,26.33
2023-02-06T12:59:32.299Z,27.33
2023-02-06T13:02:19.668Z,29.33
2023-02-06T13:04:54.337Z,26.83
2023-02-06T13:07:28.239Z,28.77
2023-02-06T13:10:04.830Z,26.30
2023-02-06T13:12:36.913Z,28.80
2023-02-06T13:15:10.591Z,26.20
2023-02-06T13:17:43.227Z,25.27
2023-02-06T13:20:22.352Z,25.77
2023-02-06T13:22:55.962Z,28.00
2023-02-06T13:25:32.544Z,29.60
2023-02-06T13:28:26.155Z,26.73
2023-02-06T13:31:05.062Z,26.03
2023-02-06T13:33:52.274Z,24.10
2023-02-06T13:36:47.775Z,26.30
2023-02-06T13:39:27.414Z,29.13
2023-02-06T13:42:01.028Z,27.83
2023-02-06T13:44:34.101Z,26.20
2023-02-06T13:47:10.904Z,31.13
2023-02-06T13:49:56.553Z,31.13
2023-02-06T13:52:32.830Z,23.43
2023-02-06T13:55:09.049Z,26.27
2023-02-06T13:58:02.538Z,24.77
2023-02-06T14:00:37.252Z,27.67
2023-02-06T14:03:29.036Z,30.47
2023-02-06T14:06:02.544Z,25.13
2023-02-06T14:08:36.094Z,24.37
2023-02-06T14:11:36.231Z,23.93
2023-02-06T14:14:32.648Z,26.33
2023-02-06T14:17:29.768Z,28.23
2023-02-06T14:20:06.238Z,22.60
2023-02-06T14:22:51.651Z,23.53
2023-02-06T14:25:41.528Z,30.57
2023-02-06T14:28:35.970Z,22.90
2023-02-06T14:31:17.707Z,26.73
2023-02-06T14:33:57.105Z,22.00
2023-02-06T14:36:30.768Z,22.13
2023-02-06T14:39:29.451Z,19.30
2023-02-06T14:42:00.461Z,20.73
2023-02-06T14:44:32.254Z,21.97
2023-02-06T14:47:05.800Z,21.60
2023-02-06T14:49:38.578Z,21.37
2023-02-06T14:52:12.073Z,20.07
2023-02-06T14:54:44.254Z,25.43
2023-02-06T14:57:29.382Z,18.57
2023-02-06T15:00:09.267Z,22.80
2023-02-06T15:02:41.538Z,24.83
2023-02-06T15:05:31.807Z,20.10
2023-02-06T15:08:04.520Z,21.77
2023-02-06T15:10:37.807Z,22.43
2023-02-06T15:13:11.611Z,20.80
2023-02-06T15:15:52.988Z,22.47
2023-02-06T15:18:27.211Z,21.50
2023-02-06T15:21:01.004Z,21.00
2023-02-06T15:23:48.044Z,21.47
2023-02-06T15:26:55.215Z,20.23
2023-02-06T15:29:27.599Z,19.80
2023-02-06T15:32:02.405Z,17.43
2023-02-06T15:34:34.832Z,21.27
2023-02-06T15:37:09.163Z,19.40
2023-02-06T15:39:40.511Z,17.70
2023-02-06T15:42:11.558Z,17.60
2023-02-06T15:44:42.995Z,19.07
2023-02-06T15:47:16.638Z,22.00
2023-02-06T15:49:50.932Z,20.77
2023-02-06T15:52:36.908Z,20.83
2023-02-06T15:55:07.962Z,21.67
2023-02-06T15:57:44.592Z,22.30
2023-02-06T16:00:25.642Z,24.00
2023-02-06T16:02:59.238Z,21.17
2023-02-06T16:05:34.914Z,23.87
2023-02-06T16:08:08.488Z,23.33
2023-02-06T16:10:40.661Z,25.77
2023-02-06T16:13:17.710Z,25.00
2023-02-06T16:16:08.462Z,24.03
2023-02-06T16:18:41.111Z,24.63
2023-02-06T16:21:14.969Z,30.77
2023-02-06T16:23:51.560Z,25.50
2023-02-06T16:26:24.891Z,25.33
2023-02-06T16:29:13.199Z,25.17
2023-02-06T16:31:45.522Z,26.43
2023-02-06T16:34:32.160Z,25.33
2023-02-06T16:37:04.322Z,22.37
2023-02-06T16:39:35.214Z,23.97
2023-02-06T16:42:06.405Z,21.57
2023-02-06T16:44:44.757Z,23.13
2023-02-06T16:47:13.998Z,24.30
2023-02-06T16:49:46.723Z,23.30
2023-02-06T16:52:20.497Z,21.13
2023-02-06T16:54:51.850Z,19.13
2023-02-06T16:57:25.382Z,20.77
2023-02-06T16:59:56.925Z,23.63
2023-02-06T17:02:29.317Z,26.03
2023-02-06T17:05:01.528Z,25.37
2023-02-06T17:07:35.032Z,25.87
2023-02-06T17:10:09.958Z,25.07
2023-02-06T17:12:42.791Z,23.87
2023-02-06T17:15:18.612Z,26.20
2023-02-06T17:17:49.389Z,28.87
2023-02-06T17:20:31.983Z,27.27
2023-02-06T17:23:02.966Z,32.90
2023-02-06T17:25:33.874Z,28.87
2023-02-06T17:28:06.871Z,26.70
2023-02-06T17:30:39.419Z,25.57
2023-02-06T17:33:11.523Z,23.70
2023-02-06T17:35:42.202Z,27.17
2023-02-06T17:38:14.063Z,25.97
2023-02-06T17:40:45.665Z,25.77
2023-02-06T17:43:16.491Z,23.80
2023-02-06T17:45:47.492Z,26.80
2023-02-06T17:48:18.551Z,24.27
2023-02-06T17:50:49.271Z,28.33
2023-02-06T17:53:20.435Z,27.33
2023-02-06T17:55:54.134Z,27.57
2023-02-06T17:58:26.390Z,28.27
2023-02-06T18:00:59.868Z,25.03
2023-02-06T18:03:30.676Z,32.97
2023-02-06T18:06:02.233Z,29.90
2023-02-06T18:08:32.760Z,29.67
2023-02-06T18:11:07.169Z,32.10
2023-02-06T18:13:40.838Z,32.93
2023-02-06T18:16:17.330Z,36.13
2023-02-06T18:18:50.044Z,34.90
2023-02-06T18:21:21.823Z,29.07
2023-02-06T18:23:54.476Z,29.03
2023-02-06T18:26:25.249Z,29.17
2023-02-06T18:28:55.964Z,30.00
2023-02-06T18:31:33.439Z,37.20
2023-02-06T18:34:08.066Z,40.07
2023-02-06T18:36:42.061Z,36.63
2023-02-06T18:39:13.107Z,33.70
2023-02-06T18:42:05.837Z,33.07
2023-02-06T18:44:38.080Z,33.47
2023-02-06T18:47:11.263Z,37.07
2023-02-06T18:49:44.702Z,31.73
2023-02-06T18:52:16.630Z,31.00
2023-02-06T18:54:48.763Z,29.83
2023-02-06T18:57:20.909Z,30.57
2023-02-06T18:59:53.402Z,32.03
2023-02-06T19:02:24.175Z,29.67
2023-02-06T19:04:57.998Z,30.70
2023-02-06T19:07:30.624Z,39.17
2023-02-06T19:10:03.130Z,36.87
2023-02-06T19:12:34.256Z,35.67
2023-02-06T19:15:06.449Z,34.07
2023-02-06T19:17:39.080Z,34.17
2023-02-06T19:20:18.795Z,32.93
2023-02-06T19:22:48.033Z,29.57
2023-02-06T19:25:19.151Z,31.00
2023-02-06T19:27:49.776Z,36.03
2023-02-06T19:30:20.602Z,35.53
2023-02-06T19:32:51.477Z,31.37
2023-02-06T19:35:23.159Z,31.70
2023-02-06T19:37:53.805Z,35.33
2023-02-06T19:40:25.680Z,35.97
2023-02-06T19:43:03.271Z,35.03
2023-02-06T19:45:38.547Z,37.43
2023-02-06T19:48:10.748Z,34.63
2023-02-06T19:50:42.470Z,37.23
2023-02-06T19:53:20.852Z,38.57
2023-02-06T19:55:54.655Z,39.33
2023-02-06T19:58:26.853Z,43.33
2023-02-06T20:00:59.283Z,42.73
2023-02-06T20:03:29.668Z,37.47
2023-02-06T20:06:04.048Z,32.43
2023-02-06T20:08:34.739Z,38.17
2023-02-06T20:11:07.763Z,34.40
2023-02-06T20:13:39.932Z,35.37
2023-02-06T20:16:19.351Z,36.20
2023-02-06T20:18:52.201Z,34.53
2023-02-06T20:21:29.376Z,36.77
2023-02-06T20:24:03.143Z,38.77
2023-02-06T20:26:36.928Z,38.03
2023-02-06T20:29:08.930Z,40.47
2023-02-06T20:31:39.570Z,39.73
2023-02-06T20:34:10.131Z,36.83
2023-02-06T20:36:41.904Z,37.83
2023-02-06T20:39:13.974Z,33.57
2023-02-06T20:41:45.601Z,36.60
2023-02-06T20:44:20.430Z,38.17
2023-02-06T20:46:51.668Z,44.17
2023-02-06T20:49:26.390Z,39.70
2023-02-06T20:51:57.631Z,53.20
2023-02-06T20:54:30.894Z,40.30
2023-02-06T20:57:02.827Z,40.70
2023-02-06T20:59:33.743Z,41.67
2023-02-06T21:02:04.499Z,44.13
2023-02-06T21:04:37.093Z,39.63
2023-02-06T21:07:09.833Z,41.63
2023-02-06T21:09:40.718Z,43.17
2023-02-06T21:12:11.154Z,38.83
2023-02-06T21:14:41.849Z,45.10
2023-02-06T21:17:12.276Z,40.47
2023-02-06T21:19:42.969Z,36.07
2023-02-06T21:22:14.396Z,40.50
2023-02-06T21:24:45.097Z,38.67
2023-02-06T21:27:17.241Z,41.87
2023-02-06T21:29:49.278Z,38.33
2023-02-06T21:32:19.917Z,38.10
2023-02-06T21:34:50.545Z,42.00
2023-02-06T21:37:22.594Z,40.30
2023-02-06T21:39:53.121Z,41.30
2023-02-06T21:42:25.283Z,37.97
2023-02-06T21:44:56.113Z,46.90
2023-02-06T21:47:27.780Z,40.73
2023-02-06T21:49:59.465Z,39.83
2023-02-06T21:52:32.296Z,42.23
2023-02-06T21:55:02.799Z,40.30
2023-02-06T21:57:33.424Z,42.67
2023-02-06T22:00:05.628Z,39.57
2023-02-06T22:02:36.098Z,47.57
2023-02-06T22:05:10.194Z,40.80
2023-02-06T22:07:41.635Z,38.97
2023-02-06T22:10:15.775Z,37.70
2023-02-06T22:12:52.345Z,40.13
2023-02-06T22:15:24.510Z,38.83
2023-02-06T22:17:55.125Z,41.57
2023-02-06T22:20:26.039Z,49.77
2023-02-06T22:22:57.565Z,45.03
2023-02-06T22:25:28.579Z,51.43
2023-02-06T22:27:59.102Z,50.00
2023-02-06T22:30:29.658Z,48.33
2023-02-06T22:33:00.884Z,46.07
2023-02-06T22:35:31.372Z,45.97
2023-02-06T22:38:10.808Z,40.13
2023-02-06T22:40:41.388Z,43.33
2023-02-06T22:43:11.947Z,40.77
2023-02-06T22:45:42.396Z,38.23
2023-02-06T22:48:13.031Z,39.20
2023-02-06T22:50:45.075Z,36.97
2023-02-06T22:53:31.974Z,38.03
2023-02-06T22:56:26.268Z,38.37
2023-02-06T22:59:10.167Z,35.03
2023-02-06T23:01:44.993Z,38.93
2023-02-06T23:04:18.716Z,43.90
2023-02-06T23:06:49.862Z,38.03
2023-02-06T23:09:25.776Z,37.40
2023-02-06T23:11:58.360Z,41.23
2023-02-06T23:14:31.077Z,38.27
2023-02-06T23:17:03.220Z,36.23
2023-02-06T23:19:33.909Z,39.13
2023-02-06T23:22:04.565Z,42.70
2023-02-06T23:24:35.320Z,36.80
2023-02-06T23:27:06.004Z,40.27
2023-02-06T23:29:36.466Z,37.40
2023-02-06T23:32:07.378Z,40.07
2023-02-06T23:34:39.812Z,37.20
2023-02-06T23:37:10.075Z,32.53
2023-02-06T23:39:40.669Z,34.90
2023-02-06T23:42:11.166Z,32.73
2023-02-06T23:44:44.744Z,32.60
2023-02-06T23:47:15.232Z,30.23
2023-02-06T23:49:45.929Z,31.43
2023-02-06T23:52:17.962Z,32.53
2023-02-06T23:54:48.370Z,30.23
2023-02-06T23:57:18.827Z,33.20
2023-02-06T23:59:49.567Z,33.50
